EGCC/MAN METAR and TAF weather

Enter ICAO airport designator
Station Type Date Time Source
EGCC METAR 2022/09/26 10:20 UTC NOAA

EGCC 261020Z 33011KT 9999 SCT030 13/06 Q1002


Station Type Date Time Source
EGCC Decoded METAR 2022/09/26 10:20 UTC NOAA

Manchester Airport, United Kingdom (EGCC) 53-21N 002-17W 0M
Sep 26, 2022 - 06:20 AM EDT / 2022.09.26 1020 UTC
Wind: from the NNW (330 degrees) at 13 MPH (11 KT):0
Visibility: greater than 7 mile(s):0
Sky conditions: partly cloudy
Temperature: 55 F (13 C)
Dew Point: 42 F (6 C)
Relative Humidity: 62%
Pressure (altimeter): 29.59 in. Hg (1002 hPa)
ob: EGCC 261020Z 33011KT 9999 SCT030 13/06 Q1002
cycle: 10

Station Type Date Time Source
EGCC TAF 2022/09/26 06:12 UTC NOAA

TAF EGCC 260504Z 2606/2712 32011KT 9999 SCT025
TEMPO 2606/2712 6000 SHRA
BECMG 2700/2703 26008KT PROB30
TEMPO 2703/2712 3000 +SHRA BKN014
BECMG 2709/2712 32010KT

Example: see airport list